CMB833 Details

Departure: Ramstein Air Force Base (ETAR)
Arrival: Bagram Air Base (OAIX) at N/A
Notes: USTRANSCOM CONTRACT FLIGHT


Current Weather Information
ETAR 230726Z 07004KT 9000 BR OVC005 11/11 A3002 RMK AO2A SLP172 $
OAIX 230658Z 31005KT 9999 FEW100 20/M05 A3006 RMK AO2A SLP118 T01961051 $